Latest Weather Observations for Sydney Olympic Park

IDN60801

Issued at 6:32 pm EST Saturday 24 June 2017 (issued every 30 minutes, with the page automatically refreshed every 10 minutes)

About weather observations | Map of weather stations | Latest weather observations for NSW | Other Formats
Station Details ID: 066212 Name: SYDNEY OLYMPIC PARK AWS (ARCHERY CENTRE) Lat: -33.83 Lon: 151.07 Height: 4.0 m
Data from the previous 72 hours. | See also: Recent months at Sydney Olympic Park
Date/Time
EST
Temp
°C
App
Temp
°C
Dew
Point
°C
Rel
Hum
%
Delta-T
°C
Wind Press
QNH
hPa
Press
MSL
hPa
Rain since
9am
mm
Dir  Spd
km/h
Gust
km/h
Spd
kts
Gust
kts
24/06:30pm 10.0 9.6 8.3 89 0.8 CALM 0 0 0 0 - - 0.0
24/06:00pm 10.5 9.9 7.6 82 1.4 CALM 0 0 0 0 - - 0.0
24/05:30pm 11.5 11.0 8.0 79 1.7 CALM 0 0 0 0 - - 0.0
24/05:00pm 13.6 13.2 8.4 71 2.6 CALM 0 0 0 0 - - 0.0
24/04:30pm 16.5 15.1 7.2 54 4.6 SW 4 7 2 4 - - 0.0
24/04:00pm 17.8 15.7 5.7 45 5.9 SW 6 11 3 6 - - 0.0
24/03:30pm 18.7 16.7 6.9 46 5.9 W 7 13 4 7 - - 0.0
24/03:00pm 19.1 16.3 6.9 45 6.1 WNW 11 20 6 11 - - 0.0
24/02:30pm 18.5 15.2 6.4 45 6.0 W 13 22 7 12 - - 0.0
24/02:00pm 19.0 16.2 7.1 46 6.0 WNW 11 19 6 10 - - 0.0
24/01:30pm 18.7 16.3 7.2 47 5.8 W 9 20 5 11 - - 0.0
24/01:00pm 18.2 15.2 5.8 44 6.1 WNW 11 20 6 11 - - 0.0
24/12:30pm 18.2 15.0 7.0 48 5.6 WNW 13 19 7 10 - - 0.0
24/12:00pm 17.6 14.8 7.1 50 5.2 WNW 11 19 6 10 - - 0.0
24/11:30am 17.3 14.5 6.8 50 5.2 NW 11 17 6 9 - - 0.0
24/11:00am 16.5 13.9 7.7 56 4.4 NW 11 15 6 8 - - 0.0
24/10:30am 15.2 12.3 6.5 56 4.2 NW 11 15 6 8 - - 0.0
24/10:00am 14.1 10.9 6.7 61 3.6 WNW 13 19 7 10 - - 0.0
24/09:30am 13.1 10.1 6.2 63 3.3 WNW 11 17 6 9 - - 0.0
24/09:00am 11.8 8.0 5.7 66 2.8 NW 15 20 8 11 - - 0.0
24/08:30am 10.9 7.3 5.2 68 2.6 WNW 13 19 7 10 - - 0.0
24/08:00am 9.9 5.6 5.1 72 2.2 WNW 17 22 9 12 - - 0.0
24/07:30am 8.7 6.3 4.5 75 1.9 SW 6 9 3 5 - - 0.0
24/07:00am 9.3 5.7 5.1 75 1.9 WNW 13 19 7 10 - - 0.0
24/06:30am 9.3 5.7 5.1 75 1.9 WNW 13 19 7 10 - - 0.0
24/06:00am 10.1 5.7 4.7 69 2.4 NW 17 24 9 13 - - 0.0
24/05:30am 9.9 7.0 4.9 71 2.2 WNW 9 15 5 8 - - 0.0
24/05:00am 10.7 6.4 5.3 69 2.5 NW 17 22 9 12 - - 0.0
24/04:30am 10.0 5.7 5.4 73 2.1 NW 17 20 9 11 - - 0.0
24/04:00am 9.5 5.7 5.9 78 1.6 NW 15 20 8 11 - - 0.0
24/03:30am 9.4 4.9 6.1 80 1.5 NW 19 28 10 15 - - 0.0
24/03:00am 8.4 4.4 6.7 89 0.8 NW 17 24 9 13 - - 0.0
24/02:30am 7.6 4.2 7.5 99 0.0 NW 15 20 8 11 - - 0.0
24/02:00am 6.6 5.4 6.5 99 0.0 WNW 2 9 1 5 - - 0.0
24/01:30am 6.8 6.0 6.7 99 0.0 CALM 0 6 0 3 - - 0.0
24/01:00am 7.1 6.4 7.0 99 0.0 CALM 0 0 0 0 - - 0.0
24/12:30am 7.5 6.9 7.4 99 0.0 CALM 0 2 0 1 - - 0.0
24/12:00am 7.8 6.9 7.7 99 0.0 W 2 7 1 4 - - 0.0
 
Date/Time
EST
Temp
°C
App
Temp
°C
Dew
Point
°C
Rel
Hum
%
Delta-T
°C
Wind Press
QNH
hPa
Press
MSL
hPa
Rain since
9am
mm
Dir  Spd
km/h
Gust
km/h
Spd
kts
Gust
kts
23/11:30pm 8.2 7.8 8.1 99 0.0 CALM 0 0 0 0 - - 0.0
23/11:00pm 8.4 8.0 8.3 99 0.0 CALM 0 0 0 0 - - 0.0
23/10:30pm 8.6 8.2 8.3 98 0.1 CALM 0 0 0 0 - - 0.0
23/10:00pm 9.2 9.0 9.1 99 0.0 CALM 0 0 0 0 - - 0.0
23/09:30pm 9.5 9.4 9.4 99 0.0 CALM 0 0 0 0 - - 0.0
23/09:00pm 9.6 9.5 9.3 98 0.1 CALM 0 0 0 0 - - 0.0
23/08:30pm 9.9 9.8 9.3 96 0.3 CALM 0 0 0 0 - - 0.0
23/08:00pm 10.2 10.1 9.4 95 0.4 CALM 0 0 0 0 - - 0.0
23/07:30pm 10.6 9.4 9.5 93 0.6 NNW 6 7 3 4 - - 0.0
23/07:00pm 11.0 11.0 9.8 92 0.6 CALM 0 0 0 0 - - 0.0
23/06:30pm 11.5 10.2 10.1 91 0.7 NW 7 11 4 6 - - 0.0
23/06:00pm 11.8 11.8 9.7 87 1.1 CALM 0 0 0 0 - - 0.0
23/05:30pm 12.6 12.4 9.1 79 1.8 CALM 0 6 0 3 - - 0.0
23/05:00pm 14.8 13.6 9.4 70 2.8 NW 6 7 3 4 - - 0.0
23/04:30pm 15.8 14.1 9.7 67 3.2 NW 9 13 5 7 - - 0.0
23/04:00pm 16.7 16.4 10.1 65 3.5 NW 2 9 1 5 - - 0.0
23/03:30pm 17.6 15.6 10.0 61 4.0 NNW 11 15 6 8 - - 0.0
23/03:00pm 17.0 14.4 9.4 61 4.0 NNW 13 17 7 9 - - 0.0
23/02:30pm 17.4 16.5 11.2 67 3.4 WNW 7 11 4 6 - - 0.0
23/02:00pm 17.9 18.2 10.8 63 3.8 CALM 0 0 0 0 - - 0.0
23/01:30pm 18.5 17.4 11.8 65 3.7 NW 9 15 5 8 - - 0.0
23/01:00pm 16.4 16.1 11.3 72 2.7 WNW 4 7 2 4 - - 0.0
23/12:30pm 15.7 14.3 10.9 73 2.6 WNW 9 15 5 8 - - 0.0
23/12:00pm 14.8 13.6 10.2 74 2.4 WNW 7 11 4 6 - - 0.0
23/11:30am 13.8 11.7 9.6 76 2.2 WNW 11 17 6 9 - - 0.0
23/11:00am 13.5 12.2 9.9 79 1.9 NW 7 15 4 8 - - 0.0
23/10:30am 11.8 9.6 9.5 86 1.2 NW 11 17 6 9 - - 0.0
23/10:00am 10.7 9.1 10.1 96 0.3 WNW 9 13 5 7 - - 0.0
23/09:30am 9.8 9.0 9.5 98 0.1 WNW 4 9 2 5 - - 0.0
23/09:00am 9.7 8.3 9.6 99 0.0 WNW 7 11 4 6 - - 0.0
23/08:30am 9.1 8.1 9.0 99 0.0 WNW 4 9 2 5 - - 0.0
23/08:00am 9.0 7.4 8.9 99 0.0 WNW 7 11 4 6 - - 0.0
23/07:30am 8.8 7.4 8.7 99 0.0 WNW 6 11 3 6 - - 0.0
23/07:00am 8.4 8.0 8.3 99 0.0 CALM 0 6 0 3 - - 0.0
23/06:30am 8.1 6.9 8.0 99 0.0 WNW 4 7 2 4 - - 0.0
23/06:00am 7.9 6.3 7.8 99 0.0 NW 6 9 3 5 - - 0.0
23/05:30am 8.0 7.1 7.9 99 0.0 NW 2 9 1 5 - - 0.0
23/05:02am 8.0 6.4 7.9 99 0.0 WNW 6 9 3 5 - - 0.0
23/05:00am 8.1 6.3 8.0 99 0.0 WNW 7 9 4 5 - - 0.0
23/04:30am 7.9 6.1 7.8 99 0.0 NW 7 9 4 5 - - 0.0
23/04:00am 7.5 5.8 7.4 99 0.0 NW 6 9 3 5 - - 0.0
23/03:30am 7.7 6.4 7.6 99 0.0 NW 4 7 2 4 - - 0.0
23/03:00am 7.7 7.1 7.6 99 0.0 CALM 0 6 0 3 - - 0.0
23/02:30am 7.9 7.4 7.8 99 0.0 CALM 0 0 0 0 - - 0.0
23/02:20am 7.9 7.4 7.8 99 0.0 CALM 0 0 0 0 - - 0.0
23/02:00am 7.6 7.0 7.5 99 0.0 CALM 0 0 0 0 - - 0.0
23/01:30am 7.8 7.3 7.7 99 0.0 CALM 0 0 0 0 - - 0.0
23/01:00am 8.1 7.6 8.0 99 0.0 CALM 0 0 0 0 - - 0.0
23/12:30am 8.3 7.9 8.2 99 0.0 CALM 0 0 0 0 - - 0.0
23/12:00am 8.9 8.6 8.8 99 0.0 CALM 0 0 0 0 - - 0.0
 
Date/Time
EST
Temp
°C
App
Temp
°C
Dew
Point
°C
Rel
Hum
%
Delta-T
°C
Wind Press
QNH
hPa
Press
MSL
hPa
Rain since
9am
mm
Dir  Spd
km/h
Gust
km/h
Spd
kts
Gust
kts
22/11:30pm 9.0 8.8 8.9 99 0.0 CALM 0 0 0 0 - - 0.0
22/11:00pm 9.6 9.5 9.5 99 0.0 CALM 0 0 0 0 - - 0.0
22/10:30pm 9.9 9.9 9.8 99 0.1 CALM 0 0 0 0 - - 0.0
22/10:00pm 9.9 9.9 9.8 99 0.1 CALM 0 0 0 0 - - 0.0
22/09:30pm 10.1 10.1 9.8 98 0.2 CALM 0 0 0 0 - - 0.0
22/09:00pm 10.5 10.5 9.9 96 0.3 CALM 0 0 0 0 - - 0.0
22/08:30pm 10.9 11.1 10.6 98 0.2 CALM 0 0 0 0 - - 0.0
22/08:00pm 11.1 11.2 10.3 95 0.4 CALM 0 0 0 0 - - 0.0
22/07:30pm 11.4 11.7 10.8 96 0.3 CALM 0 0 0 0 - - 0.0
22/07:00pm 11.6 11.8 10.5 93 0.6 CALM 0 0 0 0 - - 0.0
22/06:30pm 11.9 12.0 10.3 90 0.8 CALM 0 0 0 0 - - 0.0
22/06:00pm 12.7 13.0 10.8 88 1.0 CALM 0 6 0 3 - - 0.0
22/05:30pm 12.4 12.3 9.6 83 1.4 CALM 0 0 0 0 - - 0.0
22/05:00pm 13.8 13.7 9.6 76 2.2 CALM 0 0 0 0 - - 0.0
22/04:30pm 15.9 14.9 10.2 69 3.0 WNW 6 7 3 4 - - 0.0
22/04:00pm 17.4 16.9 9.3 59 4.2 WNW 2 6 1 3 - - 0.0
22/03:30pm 18.1 16.8 7.8 51 5.2 N 4 7 2 4 - - 0.0
22/03:00pm 18.4 18.3 9.5 56 4.7 CALM 0 7 0 4 - - 0.0
22/02:30pm 18.9 18.3 9.1 53 5.1 NNE 2 7 1 4 - - 0.0
22/02:00pm 18.6 18.3 8.8 53 5.1 CALM 0 7 0 4 - - 0.0
22/01:30pm 18.7 17.7 8.7 52 5.2 WNW 4 9 2 5 - - 0.0
22/01:00pm 19.0 17.7 10.0 56 4.8 NW 7 11 4 6 - - 0.0
22/12:30pm 17.7 16.9 9.6 59 4.3 WSW 4 11 2 6 - - 0.0
22/12:00pm 18.3 17.8 10.9 62 4.0 NNW 4 9 2 5 - - 0.0
22/11:30am 16.6 15.5 10.0 65 3.5 WSW 6 13 3 7 - - 0.0
22/11:00am 16.6 15.3 10.0 65 3.5 WNW 7 13 4 7 - - 0.0
22/10:30am 15.4 13.9 10.4 72 2.6 WNW 9 15 5 8 - - 0.0
22/10:00am 13.6 12.0 8.7 72 2.5 W 7 13 4 7 - - 0.0
22/09:30am 13.0 11.2 9.3 78 1.9 W 9 13 5 7 - - 0.0
22/09:00am 11.9 10.2 8.2 78 1.8 WNW 7 17 4 9 - - 0.0
22/08:30am 11.0 9.2 9.3 89 0.8 WNW 9 13 5 7 - - 0.0
22/08:00am 9.4 7.9 9.3 99 0.0 WNW 7 9 4 5 - - 0.0
22/07:30am 8.4 6.9 8.3 99 0.0 NW 6 9 3 5 - - 0.0
22/07:00am 8.1 7.6 7.8 98 0.1 CALM 0 0 0 0 - - 0.0
22/06:30am 8.4 7.6 8.1 98 0.1 NW 2 7 1 4 - - 0.0
22/06:00am 8.7 6.6 8.3 97 0.2 WNW 9 11 5 6 - - 0.0
22/05:30am 8.9 7.2 8.3 96 0.3 NW 7 11 4 6 - - 0.0
22/05:00am 9.1 7.5 8.6 97 0.2 NW 7 13 4 7 - - 0.0
22/04:30am 9.3 7.9 8.8 97 0.2 WNW 6 9 3 5 - - 0.0
22/04:00am 9.7 8.3 9.6 99 0.0 WNW 7 9 4 5 - - 0.0
22/03:30am 9.2 9.0 9.1 99 0.0 CALM 0 6 0 3 - - 0.0
22/03:00am 8.9 7.2 8.5 97 0.2 WNW 7 9 4 5 - - 0.0
22/02:30am 9.6 8.2 9.5 99 0.0 NW 7 11 4 6 - - 0.0
22/02:00am 9.5 9.0 9.2 98 0.1 NW 2 6 1 3 - - 0.0
22/01:30am 9.1 8.1 9.0 99 0.0 WNW 4 7 2 4 - - 0.0
22/01:00am 9.0 8.7 8.7 98 0.1 CALM 0 0 0 0 - - 0.0
22/12:30am 9.0 8.6 8.4 96 0.3 CALM 0 0 0 0 - - 0.0
22/12:00am 9.5 9.3 8.9 96 0.3 CALM 0 0 0 0 - - 0.0
 
Date/Time
EST
Temp
°C
App
Temp
°C
Dew
Point
°C
Rel
Hum
%
Delta-T
°C
Wind Press
QNH
hPa
Press
MSL
hPa
Rain since
9am
mm
Dir  Spd
km/h
Gust
km/h
Spd
kts
Gust
kts
21/11:30pm 9.8 9.2 8.9 94 0.4 NNW 2 7 1 4 - - 0.0
21/11:00pm 10.2 9.8 9.6 96 0.3 W 2 7 1 4 - - 0.0
21/10:30pm 10.3 10.1 9.2 93 0.5 CALM 0 0 0 0 - - 0.0
21/10:00pm 11.0 11.0 9.9 93 0.6 CALM 0 0 0 0 - - 0.0
21/09:30pm 11.8 11.8 9.7 87 1.1 CALM 0 4 0 2 - - 0.0
21/09:00pm 13.2 11.9 10.0 81 1.6 SW 7 11 4 6 - - 0.0
21/08:30pm 11.8 11.0 10.9 94 0.5 W 6 9 3 5 - - 0.0
21/08:00pm 10.7 10.4 10.1 96 0.3 W 2 7 1 4 - - 0.0
21/07:30pm 11.0 10.3 10.2 95 0.4 W 4 7 2 4 - - 0.0
21/07:00pm 11.2 11.3 10.1 93 0.6 CALM 0 0 0 0 - - 0.0

Other Formats:

Comma delimited format used in spreadsheet applications
http://www.bom.gov.au/fwo/IDN60801/IDN60801.95765.axf

JavaScript Object Notation format (JSON) in row-major order
http://www.bom.gov.au/fwo/IDN60801/IDN60801.95765.json